sensor_id;sensor_type;location;lat;lon;timestamp;P1;durP1;ratioP1;P2;durP2;ratioP2
17921;SDS011;9086;50.966;3.144;2023-05-07T00:02:03;10.63;;;7.77;;
17921;SDS011;9086;50.966;3.144;2023-05-07T00:04:29;12.93;;;7.63;;
17921;SDS011;9086;50.966;3.144;2023-05-07T00:07:01;10.93;;;7.60;;
17921;SDS011;9086;50.966;3.144;2023-05-07T00:09:28;16.43;;;7.57;;
17921;SDS011;9086;50.966;3.144;2023-05-07T00:11:56;11.27;;;7.60;;
17921;SDS011;9086;50.966;3.144;2023-05-07T00:14:24;14.00;;;8.60;;
17921;SDS011;9086;50.966;3.144;2023-05-07T00:16:50;13.50;;;8.10;;
17921;SDS011;9086;50.966;3.144;2023-05-07T00:19:19;11.23;;;7.73;;
17921;SDS011;9086;50.966;3.144;2023-05-07T00:21:47;10.20;;;7.63;;
17921;SDS011;9086;50.966;3.144;2023-05-07T00:24:13;14.97;;;7.43;;
17921;SDS011;9086;50.966;3.144;2023-05-07T00:26:39;12.97;;;7.50;;
17921;SDS011;9086;50.966;3.144;2023-05-07T00:29:05;12.53;;;7.57;;
17921;SDS011;9086;50.966;3.144;2023-05-07T00:31:31;12.77;;;7.77;;
17921;SDS011;9086;50.966;3.144;2023-05-07T00:33:57;9.60;;;6.33;;
17921;SDS011;9086;50.966;3.144;2023-05-07T00:36:27;11.43;;;7.67;;
17921;SDS011;9086;50.966;3.144;2023-05-07T00:38:54;8.93;;;6.93;;
17921;SDS011;9086;50.966;3.144;2023-05-07T00:41:20;13.80;;;7.60;;
17921;SDS011;9086;50.966;3.144;2023-05-07T00:43:49;10.13;;;7.87;;
17921;SDS011;9086;50.966;3.144;2023-05-07T00:46:16;9.30;;;6.97;;
17921;SDS011;9086;50.966;3.144;2023-05-07T00:48:46;9.67;;;7.17;;
17921;SDS011;9086;50.966;3.144;2023-05-07T00:51:14;12.10;;;6.70;;
17921;SDS011;9086;50.966;3.144;2023-05-07T00:53:41;12.43;;;8.27;;
17921;SDS011;9086;50.966;3.144;2023-05-07T00:56:07;13.43;;;7.90;;
17921;SDS011;9086;50.966;3.144;2023-05-07T00:58:33;7.50;;;6.63;;
17921;SDS011;9086;50.966;3.144;2023-05-07T01:00:59;10.50;;;8.50;;
17921;SDS011;9086;50.966;3.144;2023-05-07T01:03:34;10.33;;;8.17;;
17921;SDS011;9086;50.966;3.144;2023-05-07T01:06:00;10.00;;;7.27;;
17921;SDS011;9086;50.966;3.144;2023-05-07T01:08:29;12.77;;;8.63;;
17921;SDS011;9086;50.966;3.144;2023-05-07T01:10:56;7.53;;;6.70;;
17921;SDS011;9086;50.966;3.144;2023-05-07T01:13:25;12.97;;;6.70;;
17921;SDS011;9086;50.966;3.144;2023-05-07T01:15:51;12.00;;;7.90;;
17921;SDS011;9086;50.966;3.144;2023-05-07T01:18:17;12.97;;;8.17;;
17921;SDS011;9086;50.966;3.144;2023-05-07T01:20:43;9.33;;;7.50;;
17921;SDS011;9086;50.966;3.144;2023-05-07T01:23:10;11.80;;;7.90;;
17921;SDS011;9086;50.966;3.144;2023-05-07T01:25:37;10.17;;;6.93;;
17921;SDS011;9086;50.966;3.144;2023-05-07T01:28:03;11.73;;;7.47;;
17921;SDS011;9086;50.966;3.144;2023-05-07T01:30:29;10.37;;;7.30;;
17921;SDS011;9086;50.966;3.144;2023-05-07T01:33:00;12.00;;;7.67;;
17921;SDS011;9086;50.966;3.144;2023-05-07T01:35:32;7.70;;;6.90;;
17921;SDS011;9086;50.966;3.144;2023-05-07T01:38:02;9.07;;;7.33;;
17921;SDS011;9086;50.966;3.144;2023-05-07T01:40:29;12.27;;;7.70;;
17921;SDS011;9086;50.966;3.144;2023-05-07T01:42:59;11.80;;;7.77;;
17921;SDS011;9086;50.966;3.144;2023-05-07T01:45:25;14.33;;;7.63;;
17921;SDS011;9086;50.966;3.144;2023-05-07T01:47:51;12.70;;;8.03;;
17921;SDS011;9086;50.966;3.144;2023-05-07T01:50:20;9.00;;;7.20;;
17921;SDS011;9086;50.966;3.144;2023-05-07T01:52:47;10.83;;;7.80;;
17921;SDS011;9086;50.966;3.144;2023-05-07T01:55:13;11.93;;;7.27;;
17921;SDS011;9086;50.966;3.144;2023-05-07T01:57:41;10.60;;;7.33;;
17921;SDS011;9086;50.966;3.144;2023-05-07T02:00:07;8.93;;;6.83;;
17921;SDS011;9086;50.966;3.144;2023-05-07T02:02:35;9.23;;;7.20;;
17921;SDS011;9086;50.966;3.144;2023-05-07T02:05:03;8.50;;;7.70;;
17921;SDS011;9086;50.966;3.144;2023-05-07T02:07:29;10.77;;;7.50;;
17921;SDS011;9086;50.966;3.144;2023-05-07T02:09:55;10.50;;;7.83;;
17921;SDS011;9086;50.966;3.144;2023-05-07T02:12:23;13.77;;;8.00;;
17921;SDS011;9086;50.966;3.144;2023-05-07T02:14:49;12.50;;;8.03;;
17921;SDS011;9086;50.966;3.144;2023-05-07T02:17:18;9.13;;;7.50;;
17921;SDS011;9086;50.966;3.144;2023-05-07T02:19:44;10.50;;;7.80;;
17921;SDS011;9086;50.966;3.144;2023-05-07T02:22:17;8.67;;;6.93;;
17921;SDS011;9086;50.966;3.144;2023-05-07T02:24:43;8.80;;;7.37;;
17921;SDS011;9086;50.966;3.144;2023-05-07T02:27:09;8.80;;;8.00;;
17921;SDS011;9086;50.966;3.144;2023-05-07T02:29:35;11.67;;;8.07;;
17921;SDS011;9086;50.966;3.144;2023-05-07T02:32:01;10.90;;;7.73;;
17921;SDS011;9086;50.966;3.144;2023-05-07T02:34:27;8.73;;;7.70;;
17921;SDS011;9086;50.966;3.144;2023-05-07T02:36:53;13.37;;;7.83;;
17921;SDS011;9086;50.966;3.144;2023-05-07T02:39:23;10.23;;;7.70;;
17921;SDS011;9086;50.966;3.144;2023-05-07T02:41:49;9.93;;;7.80;;
17921;SDS011;9086;50.966;3.144;2023-05-07T02:44:15;9.03;;;7.93;;
17921;SDS011;9086;50.966;3.144;2023-05-07T02:46:41;14.70;;;9.00;;
17921;SDS011;9086;50.966;3.144;2023-05-07T02:49:08;10.10;;;7.57;;
17921;SDS011;9086;50.966;3.144;2023-05-07T02:51:33;12.60;;;8.63;;
17921;SDS011;9086;50.966;3.144;2023-05-07T02:54:02;11.10;;;8.53;;
17921;SDS011;9086;50.966;3.144;2023-05-07T02:56:30;8.97;;;7.93;;
17921;SDS011;9086;50.966;3.144;2023-05-07T02:58:59;10.67;;;8.20;;
17921;SDS011;9086;50.966;3.144;2023-05-07T03:01:25;12.23;;;7.83;;
17921;SDS011;9086;50.966;3.144;2023-05-07T03:03:53;11.97;;;8.13;;
17921;SDS011;9086;50.966;3.144;2023-05-07T03:06:21;12.43;;;8.10;;
17921;SDS011;9086;50.966;3.144;2023-05-07T03:08:49;8.17;;;7.40;;
17921;SDS011;9086;50.966;3.144;2023-05-07T03:11:15;10.13;;;7.70;;
17921;SDS011;9086;50.966;3.144;2023-05-07T03:13:50;11.77;;;7.63;;
17921;SDS011;9086;50.966;3.144;2023-05-07T03:16:16;12.57;;;8.30;;
17921;SDS011;9086;50.966;3.144;2023-05-07T03:18:45;12.40;;;8.27;;
17921;SDS011;9086;50.966;3.144;2023-05-07T03:21:11;10.77;;;8.03;;
17921;SDS011;9086;50.966;3.144;2023-05-07T03:23:43;9.13;;;8.13;;
17921;SDS011;9086;50.966;3.144;2023-05-07T03:26:10;8.80;;;7.67;;
17921;SDS011;9086;50.966;3.144;2023-05-07T03:28:36;11.27;;;8.40;;
17921;SDS011;9086;50.966;3.144;2023-05-07T03:31:02;11.37;;;8.13;;
17921;SDS011;9086;50.966;3.144;2023-05-07T03:33:28;8.97;;;8.07;;
17921;SDS011;9086;50.966;3.144;2023-05-07T03:35:58;9.67;;;7.57;;
17921;SDS011;9086;50.966;3.144;2023-05-07T03:38:27;11.60;;;8.13;;
17921;SDS011;9086;50.966;3.144;2023-05-07T03:40:57;10.40;;;7.83;;
17921;SDS011;9086;50.966;3.144;2023-05-07T03:43:23;10.90;;;7.17;;
17921;SDS011;9086;50.966;3.144;2023-05-07T03:45:51;11.20;;;8.67;;
17921;SDS011;9086;50.966;3.144;2023-05-07T03:48:17;10.77;;;8.37;;
17921;SDS011;9086;50.966;3.144;2023-05-07T03:50:43;11.93;;;8.17;;
17921;SDS011;9086;50.966;3.144;2023-05-07T03:53:09;14.17;;;8.60;;
17921;SDS011;9086;50.966;3.144;2023-05-07T03:55:35;9.87;;;8.70;;
17921;SDS011;9086;50.966;3.144;2023-05-07T03:58:05;11.33;;;8.77;;
17921;SDS011;9086;50.966;3.144;2023-05-07T04:00:33;10.60;;;8.20;;
17921;SDS011;9086;50.966;3.144;2023-05-07T04:03:03;12.50;;;9.27;;
17921;SDS011;9086;50.966;3.144;2023-05-07T04:05:29;15.43;;;8.77;;
17921;SDS011;9086;50.966;3.144;2023-05-07T04:08:02;11.67;;;8.73;;
17921;SDS011;9086;50.966;3.144;2023-05-07T04:10:29;9.67;;;8.57;;
17921;SDS011;9086;50.966;3.144;2023-05-07T04:12:55;13.20;;;8.87;;
17921;SDS011;9086;50.966;3.144;2023-05-07T04:15:22;10.30;;;9.13;;
17921;SDS011;9086;50.966;3.144;2023-05-07T04:17:50;10.43;;;8.37;;
17921;SDS011;9086;50.966;3.144;2023-05-07T04:20:16;9.70;;;7.90;;
17921;SDS011;9086;50.966;3.144;2023-05-07T04:22:42;11.63;;;8.27;;
17921;SDS011;9086;50.966;3.144;2023-05-07T04:25:08;10.30;;;8.63;;
17921;SDS011;9086;50.966;3.144;2023-05-07T04:27:35;10.83;;;8.63;;
17921;SDS011;9086;50.966;3.144;2023-05-07T04:30:02;10.97;;;8.97;;
17921;SDS011;9086;50.966;3.144;2023-05-07T04:32:29;12.07;;;9.53;;
17921;SDS011;9086;50.966;3.144;2023-05-07T04:35:01;10.73;;;9.43;;
17921;SDS011;9086;50.966;3.144;2023-05-07T04:37:27;11.03;;;9.13;;
17921;SDS011;9086;50.966;3.144;2023-05-07T04:39:53;10.60;;;9.00;;
17921;SDS011;9086;50.966;3.144;2023-05-07T04:42:19;10.67;;;9.60;;
17921;SDS011;9086;50.966;3.144;2023-05-07T04:44:45;9.97;;;8.83;;
17921;SDS011;9086;50.966;3.144;2023-05-07T04:47:11;12.07;;;9.43;;
17921;SDS011;9086;50.966;3.144;2023-05-07T04:49:42;13.50;;;10.63;;
17921;SDS011;9086;50.966;3.144;2023-05-07T04:52:10;11.07;;;8.60;;
17921;SDS011;9086;50.966;3.144;2023-05-07T04:54:39;10.87;;;9.57;;
17921;SDS011;9086;50.966;3.144;2023-05-07T04:57:07;14.30;;;9.67;;
17921;SDS011;9086;50.966;3.144;2023-05-07T04:59:33;13.63;;;10.37;;
17921;SDS011;9086;50.966;3.144;2023-05-07T05:01:59;9.90;;;9.00;;
17921;SDS011;9086;50.966;3.144;2023-05-07T05:04:26;11.67;;;10.47;;
17921;SDS011;9086;50.966;3.144;2023-05-07T05:06:52;13.93;;;10.13;;
17921;SDS011;9086;50.966;3.144;2023-05-07T05:09:18;11.53;;;9.33;;
17921;SDS011;9086;50.966;3.144;2023-05-07T05:11:44;15.23;;;10.50;;
17921;SDS011;9086;50.966;3.144;2023-05-07T05:14:10;13.47;;;9.20;;
17921;SDS011;9086;50.966;3.144;2023-05-07T05:16:36;12.93;;;10.07;;
17921;SDS011;9086;50.966;3.144;2023-05-07T05:19:02;12.13;;;10.07;;
17921;SDS011;9086;50.966;3.144;2023-05-07T05:21:28;11.13;;;9.83;;
17921;SDS011;9086;50.966;3.144;2023-05-07T05:23:54;14.30;;;10.57;;
17921;SDS011;9086;50.966;3.144;2023-05-07T05:26:22;14.30;;;9.00;;
17921;SDS011;9086;50.966;3.144;2023-05-07T05:28:48;12.63;;;9.67;;
17921;SDS011;9086;50.966;3.144;2023-05-07T05:31:15;13.33;;;10.33;;
17921;SDS011;9086;50.966;3.144;2023-05-07T05:33:41;17.10;;;10.57;;
17921;SDS011;9086;50.966;3.144;2023-05-07T05:36:09;13.67;;;9.43;;
17921;SDS011;9086;50.966;3.144;2023-05-07T05:38:38;10.53;;;9.43;;
17921;SDS011;9086;50.966;3.144;2023-05-07T05:41:04;14.63;;;9.47;;
17921;SDS011;9086;50.966;3.144;2023-05-07T05:43:30;11.63;;;9.50;;
17921;SDS011;9086;50.966;3.144;2023-05-07T05:45:58;12.30;;;9.30;;
17921;SDS011;9086;50.966;3.144;2023-05-07T05:48:25;10.90;;;9.60;;
17921;SDS011;9086;50.966;3.144;2023-05-07T05:50:51;11.10;;;9.30;;
17921;SDS011;9086;50.966;3.144;2023-05-07T05:53:17;18.43;;;11.63;;
17921;SDS011;9086;50.966;3.144;2023-05-07T05:55:43;14.97;;;10.33;;
17921;SDS011;9086;50.966;3.144;2023-05-07T05:58:14;14.27;;;10.40;;
17921;SDS011;9086;50.966;3.144;2023-05-07T06:00:40;15.37;;;10.23;;
17921;SDS011;9086;50.966;3.144;2023-05-07T06:03:06;13.93;;;10.60;;
17921;SDS011;9086;50.966;3.144;2023-05-07T06:05:32;16.63;;;10.60;;
17921;SDS011;9086;50.966;3.144;2023-05-07T06:07:58;16.33;;;10.97;;
17921;SDS011;9086;50.966;3.144;2023-05-07T06:10:24;15.97;;;10.60;;
17921;SDS011;9086;50.966;3.144;2023-05-07T06:12:52;14.27;;;11.27;;
17921;SDS011;9086;50.966;3.144;2023-05-07T06:15:20;16.63;;;11.40;;
17921;SDS011;9086;50.966;3.144;2023-05-07T06:17:46;15.97;;;10.10;;
17921;SDS011;9086;50.966;3.144;2023-05-07T06:20:12;16.80;;;10.13;;
17921;SDS011;9086;50.966;3.144;2023-05-07T06:22:38;16.23;;;11.00;;
17921;SDS011;9086;50.966;3.144;2023-05-07T06:25:04;13.87;;;10.43;;
17921;SDS011;9086;50.966;3.144;2023-05-07T06:27:32;13.10;;;10.20;;
17921;SDS011;9086;50.966;3.144;2023-05-07T06:29:58;14.13;;;9.33;;
17921;SDS011;9086;50.966;3.144;2023-05-07T06:32:24;14.63;;;10.33;;
17921;SDS011;9086;50.966;3.144;2023-05-07T06:34:50;13.70;;;10.03;;
17921;SDS011;9086;50.966;3.144;2023-05-07T06:37:16;13.57;;;10.00;;
17921;SDS011;9086;50.966;3.144;2023-05-07T06:39:42;15.07;;;10.37;;
17921;SDS011;9086;50.966;3.144;2023-05-07T06:42:10;14.33;;;10.43;;
17921;SDS011;9086;50.966;3.144;2023-05-07T06:44:36;13.20;;;10.57;;
17921;SDS011;9086;50.966;3.144;2023-05-07T06:47:02;13.83;;;10.20;;
17921;SDS011;9086;50.966;3.144;2023-05-07T06:49:30;12.80;;;11.37;;
17921;SDS011;9086;50.966;3.144;2023-05-07T06:51:57;13.67;;;10.80;;
17921;SDS011;9086;50.966;3.144;2023-05-07T06:54:23;13.83;;;10.97;;
17921;SDS011;9086;50.966;3.144;2023-05-07T06:56:49;16.17;;;10.40;;
17921;SDS011;9086;50.966;3.144;2023-05-07T06:59:20;17.63;;;11.37;;
17921;SDS011;9086;50.966;3.144;2023-05-07T07:01:46;12.13;;;10.33;;
17921;SDS011;9086;50.966;3.144;2023-05-07T07:04:12;14.33;;;10.57;;
17921;SDS011;9086;50.966;3.144;2023-05-07T07:06:40;15.07;;;10.50;;
17921;SDS011;9086;50.966;3.144;2023-05-07T07:09:06;13.93;;;10.33;;
17921;SDS011;9086;50.966;3.144;2023-05-07T07:11:32;15.83;;;11.00;;
17921;SDS011;9086;50.966;3.144;2023-05-07T07:14:05;11.17;;;10.03;;
17921;SDS011;9086;50.966;3.144;2023-05-07T07:16:31;14.93;;;10.87;;
17921;SDS011;9086;50.966;3.144;2023-05-07T07:18:57;14.50;;;9.60;;
17921;SDS011;9086;50.966;3.144;2023-05-07T07:21:23;11.93;;;9.93;;
17921;SDS011;9086;50.966;3.144;2023-05-07T07:23:49;11.20;;;9.20;;
17921;SDS011;9086;50.966;3.144;2023-05-07T07:26:16;12.60;;;9.03;;
17921;SDS011;9086;50.966;3.144;2023-05-07T07:28:47;12.63;;;9.77;;
17921;SDS011;9086;50.966;3.144;2023-05-07T07:31:13;13.53;;;11.10;;
17921;SDS011;9086;50.966;3.144;2023-05-07T07:33:43;17.13;;;9.93;;
17921;SDS011;9086;50.966;3.144;2023-05-07T07:36:09;15.10;;;10.23;;
17921;SDS011;9086;50.966;3.144;2023-05-07T07:38:35;10.13;;;9.13;;
17921;SDS011;9086;50.966;3.144;2023-05-07T07:41:01;15.23;;;10.63;;
17921;SDS011;9086;50.966;3.144;2023-05-07T07:43:32;14.03;;;10.10;;
17921;SDS011;9086;50.966;3.144;2023-05-07T07:45:58;12.73;;;9.83;;
17921;SDS011;9086;50.966;3.144;2023-05-07T07:48:25;14.37;;;8.93;;
17921;SDS011;9086;50.966;3.144;2023-05-07T07:50:51;13.73;;;11.20;;
17921;SDS011;9086;50.966;3.144;2023-05-07T07:53:19;14.40;;;11.30;;
17921;SDS011;9086;50.966;3.144;2023-05-07T07:55:46;12.93;;;10.77;;
17921;SDS011;9086;50.966;3.144;2023-05-07T07:58:11;12.37;;;10.80;;
17921;SDS011;9086;50.966;3.144;2023-05-07T08:00:38;15.77;;;12.97;;
17921;SDS011;9086;50.966;3.144;2023-05-07T08:03:07;15.83;;;12.23;;
17921;SDS011;9086;50.966;3.144;2023-05-07T08:05:34;15.00;;;12.50;;
17921;SDS011;9086;50.966;3.144;2023-05-07T08:08:01;15.17;;;13.57;;
17921;SDS011;9086;50.966;3.144;2023-05-07T08:10:27;13.80;;;12.33;;
17921;SDS011;9086;50.966;3.144;2023-05-07T08:12:58;13.03;;;11.63;;
17921;SDS011;9086;50.966;3.144;2023-05-07T08:15:28;13.73;;;12.33;;
17921;SDS011;9086;50.966;3.144;2023-05-07T08:17:57;14.97;;;11.93;;
17921;SDS011;9086;50.966;3.144;2023-05-07T08:20:25;18.77;;;11.57;;
17921;SDS011;9086;50.966;3.144;2023-05-07T08:22:53;10.93;;;9.80;;
17921;SDS011;9086;50.966;3.144;2023-05-07T08:25:19;10.77;;;9.67;;
17921;SDS011;9086;50.966;3.144;2023-05-07T08:27:45;8.73;;;7.90;;
17921;SDS011;9086;50.966;3.144;2023-05-07T08:30:11;9.93;;;8.50;;
17921;SDS011;9086;50.966;3.144;2023-05-07T08:32:38;11.70;;;10.63;;
17921;SDS011;9086;50.966;3.144;2023-05-07T08:35:04;16.83;;;11.57;;
17921;SDS011;9086;50.966;3.144;2023-05-07T08:37:32;12.70;;;11.20;;
17921;SDS011;9086;50.966;3.144;2023-05-07T08:40:00;15.63;;;14.00;;
17921;SDS011;9086;50.966;3.144;2023-05-07T08:42:26;17.97;;;13.40;;
17921;SDS011;9086;50.966;3.144;2023-05-07T08:44:54;11.70;;;10.40;;
17921;SDS011;9086;50.966;3.144;2023-05-07T08:47:31;10.70;;;9.63;;
17921;SDS011;9086;50.966;3.144;2023-05-07T08:50:00;7.63;;;6.83;;
17921;SDS011;9086;50.966;3.144;2023-05-07T08:52:28;8.60;;;7.20;;
17921;SDS011;9086;50.966;3.144;2023-05-07T08:54:54;8.87;;;6.67;;
17921;SDS011;9086;50.966;3.144;2023-05-07T08:57:20;10.73;;;7.60;;
17921;SDS011;9086;50.966;3.144;2023-05-07T08:59:49;9.60;;;6.83;;
17921;SDS011;9086;50.966;3.144;2023-05-07T09:02:15;5.80;;;5.20;;
17921;SDS011;9086;50.966;3.144;2023-05-07T09:04:42;8.70;;;5.40;;
17921;SDS011;9086;50.966;3.144;2023-05-07T09:07:08;5.03;;;4.50;;
17921;SDS011;9086;50.966;3.144;2023-05-07T09:09:34;6.10;;;4.83;;
17921;SDS011;9086;50.966;3.144;2023-05-07T09:12:00;4.60;;;4.20;;
17921;SDS011;9086;50.966;3.144;2023-05-07T09:14:27;5.57;;;4.00;;
17921;SDS011;9086;50.966;3.144;2023-05-07T09:16:53;7.57;;;4.80;;
17921;SDS011;9086;50.966;3.144;2023-05-07T09:19:22;5.67;;;4.47;;
17921;SDS011;9086;50.966;3.144;2023-05-07T09:21:58;5.23;;;4.73;;
17921;SDS011;9086;50.966;3.144;2023-05-07T09:24:29;4.43;;;4.00;;
17921;SDS011;9086;50.966;3.144;2023-05-07T09:27:03;4.97;;;4.30;;
17921;SDS011;9086;50.966;3.144;2023-05-07T09:29:29;7.37;;;4.47;;
17921;SDS011;9086;50.966;3.144;2023-05-07T09:32:00;8.93;;;4.70;;
17921;SDS011;9086;50.966;3.144;2023-05-07T09:34:26;6.20;;;4.77;;
17921;SDS011;9086;50.966;3.144;2023-05-07T09:36:54;5.83;;;4.97;;
17921;SDS011;9086;50.966;3.144;2023-05-07T09:39:23;7.47;;;5.80;;
17921;SDS011;9086;50.966;3.144;2023-05-07T09:41:49;6.00;;;5.07;;
17921;SDS011;9086;50.966;3.144;2023-05-07T09:44:20;8.30;;;7.27;;
17921;SDS011;9086;50.966;3.144;2023-05-07T09:46:53;10.67;;;8.03;;
17921;SDS011;9086;50.966;3.144;2023-05-07T09:49:23;14.13;;;9.67;;
17921;SDS011;9086;50.966;3.144;2023-05-07T09:51:50;9.87;;;8.73;;
17921;SDS011;9086;50.966;3.144;2023-05-07T09:54:17;10.43;;;8.70;;
17921;SDS011;9086;50.966;3.144;2023-05-07T09:56:50;12.30;;;9.60;;
17921;SDS011;9086;50.966;3.144;2023-05-07T09:59:17;10.47;;;8.83;;
17921;SDS011;9086;50.966;3.144;2023-05-07T10:01:46;11.03;;;9.07;;
17921;SDS011;9086;50.966;3.144;2023-05-07T10:04:13;11.13;;;9.85;;
17921;SDS011;9086;50.966;3.144;2023-05-07T10:06:41;10.23;;;9.17;;
17921;SDS011;9086;50.966;3.144;2023-05-07T10:09:08;10.77;;;9.67;;
17921;SDS011;9086;50.966;3.144;2023-05-07T10:11:36;13.60;;;9.97;;
17921;SDS011;9086;50.966;3.144;2023-05-07T10:14:05;11.60;;;9.97;;
17921;SDS011;9086;50.966;3.144;2023-05-07T10:16:32;10.27;;;9.27;;
17921;SDS011;9086;50.966;3.144;2023-05-07T10:19:02;10.73;;;9.63;;
17921;SDS011;9086;50.966;3.144;2023-05-07T10:21:36;11.27;;;10.17;;
17921;SDS011;9086;50.966;3.144;2023-05-07T10:24:05;11.10;;;9.87;;
17921;SDS011;9086;50.966;3.144;2023-05-07T10:26:42;11.03;;;9.93;;
17921;SDS011;9086;50.966;3.144;2023-05-07T10:34:34;9.87;;;8.87;;
17921;SDS011;9086;50.966;3.144;2023-05-07T10:37:01;8.20;;;7.37;;
17921;SDS011;9086;50.966;3.144;2023-05-07T10:39:27;6.23;;;5.70;;
17921;SDS011;9086;50.966;3.144;2023-05-07T10:42:10;5.23;;;4.40;;
17921;SDS011;9086;50.966;3.144;2023-05-07T10:44:39;6.67;;;5.83;;
17921;SDS011;9086;50.966;3.144;2023-05-07T10:47:08;5.20;;;4.70;;
17921;SDS011;9086;50.966;3.144;2023-05-07T10:50:19;7.53;;;5.67;;
17921;SDS011;9086;50.966;3.144;2023-05-07T10:52:24;6.20;;;5.80;;
17921;SDS011;9086;50.966;3.144;2023-05-07T10:57:42;7.27;;;5.53;;
17921;SDS011;9086;50.966;3.144;2023-05-07T11:05:25;10.87;;;9.80;;
17921;SDS011;9086;50.966;3.144;2023-05-07T11:07:55;10.30;;;9.50;;
17921;SDS011;9086;50.966;3.144;2023-05-07T11:13:12;10.33;;;9.30;;
17921;SDS011;9086;50.966;3.144;2023-05-07T11:15:39;10.83;;;9.90;;
17921;SDS011;9086;50.966;3.144;2023-05-07T11:18:08;11.00;;;10.13;;
17921;SDS011;9086;50.966;3.144;2023-05-07T11:20:53;12.27;;;11.43;;
17921;SDS011;9086;50.966;3.144;2023-05-07T11:26:06;13.90;;;12.60;;
17921;SDS011;9086;50.966;3.144;2023-05-07T11:28:39;14.33;;;13.13;;
17921;SDS011;9086;50.966;3.144;2023-05-07T11:31:10;13.43;;;12.23;;
17921;SDS011;9086;50.966;3.144;2023-05-07T11:33:38;14.68;;;13.32;;
17921;SDS011;9086;50.966;3.144;2023-05-07T11:36:11;16.35;;;15.02;;
17921;SDS011;9086;50.966;3.144;2023-05-07T11:38:38;18.98;;;17.48;;
17921;SDS011;9086;50.966;3.144;2023-05-07T11:41:04;18.90;;;17.45;;
17921;SDS011;9086;50.966;3.144;2023-05-07T11:43:31;11.77;;;10.70;;
17921;SDS011;9086;50.966;3.144;2023-05-07T11:46:06;7.93;;;7.32;;
17921;SDS011;9086;50.966;3.144;2023-05-07T11:48:32;9.60;;;8.48;;
17921;SDS011;9086;50.966;3.144;2023-05-07T11:53:24;8.38;;;7.57;;
17921;SDS011;9086;50.966;3.144;2023-05-07T11:55:57;8.32;;;7.57;;
17921;SDS011;9086;50.966;3.144;2023-05-07T11:58:25;7.97;;;7.43;;
17921;SDS011;9086;50.966;3.144;2023-05-07T12:00:55;8.38;;;7.57;;
17921;SDS011;9086;50.966;3.144;2023-05-07T12:03:23;7.97;;;7.45;;
17921;SDS011;9086;50.966;3.144;2023-05-07T12:05:49;9.05;;;8.15;;
17921;SDS011;9086;50.966;3.144;2023-05-07T12:08:18;9.98;;;9.05;;
17921;SDS011;9086;50.966;3.144;2023-05-07T12:10:45;9.38;;;8.48;;
17921;SDS011;9086;50.966;3.144;2023-05-07T12:13:17;8.32;;;7.53;;
17921;SDS011;9086;50.966;3.144;2023-05-07T12:15:45;7.72;;;7.03;;
17921;SDS011;9086;50.966;3.144;2023-05-07T12:18:12;8.43;;;7.53;;
17921;SDS011;9086;50.966;3.144;2023-05-07T12:20:38;8.50;;;7.05;;
17921;SDS011;9086;50.966;3.144;2023-05-07T12:23:04;6.93;;;6.35;;
17921;SDS011;9086;50.966;3.144;2023-05-07T12:25:34;7.40;;;6.70;;
17921;SDS011;9086;50.966;3.144;2023-05-07T12:28:04;7.70;;;6.97;;
17921;SDS011;9086;50.966;3.144;2023-05-07T12:30:31;8.23;;;7.43;;
17921;SDS011;9086;50.966;3.144;2023-05-07T12:32:57;6.78;;;6.18;;
17921;SDS011;9086;50.966;3.144;2023-05-07T12:35:27;7.00;;;6.40;;
17921;SDS011;9086;50.966;3.144;2023-05-07T12:37:59;7.57;;;6.82;;
17921;SDS011;9086;50.966;3.144;2023-05-07T12:40:36;7.07;;;6.38;;
17921;SDS011;9086;50.966;3.144;2023-05-07T12:43:02;7.85;;;6.32;;
17921;SDS011;9086;50.966;3.144;2023-05-07T12:45:28;6.07;;;5.47;;
17921;SDS011;9086;50.966;3.144;2023-05-07T12:47:54;4.70;;;4.30;;
17921;SDS011;9086;50.966;3.144;2023-05-07T12:50:20;5.15;;;4.35;;
17921;SDS011;9086;50.966;3.144;2023-05-07T12:52:49;5.30;;;4.20;;
17921;SDS011;9086;50.966;3.144;2023-05-07T12:55:17;7.50;;;6.13;;
17921;SDS011;9086;50.966;3.144;2023-05-07T12:57:45;8.05;;;7.35;;
17921;SDS011;9086;50.966;3.144;2023-05-07T13:00:13;8.65;;;7.80;;
17921;SDS011;9086;50.966;3.144;2023-05-07T13:02:40;8.90;;;7.80;;
17921;SDS011;9086;50.966;3.144;2023-05-07T13:05:11;7.80;;;7.10;;
17921;SDS011;9086;50.966;3.144;2023-05-07T13:07:37;8.77;;;7.60;;
17921;SDS011;9086;50.966;3.144;2023-05-07T13:10:06;7.75;;;7.05;;
17921;SDS011;9086;50.966;3.144;2023-05-07T13:12:32;7.90;;;7.20;;
17921;SDS011;9086;50.966;3.144;2023-05-07T13:14:58;25.70;;;22.50;;
17921;SDS011;9086;50.966;3.144;2023-05-07T13:17:26;16.95;;;15.07;;
17921;SDS011;9086;50.966;3.144;2023-05-07T13:19:52;15.57;;;14.18;;
17921;SDS011;9086;50.966;3.144;2023-05-07T13:22:18;13.52;;;12.25;;
17921;SDS011;9086;50.966;3.144;2023-05-07T13:24:45;17.63;;;16.02;;
17921;SDS011;9086;50.966;3.144;2023-05-07T13:27:11;11.35;;;10.35;;
17921;SDS011;9086;50.966;3.144;2023-05-07T13:29:41;8.77;;;7.95;;
17921;SDS011;9086;50.966;3.144;2023-05-07T13:32:07;8.38;;;7.68;;
17921;SDS011;9086;50.966;3.144;2023-05-07T13:34:33;6.93;;;6.32;;
17921;SDS011;9086;50.966;3.144;2023-05-07T13:36:59;7.10;;;5.75;;
17921;SDS011;9086;50.966;3.144;2023-05-07T13:39:33;7.93;;;5.10;;
17921;SDS011;9086;50.966;3.144;2023-05-07T13:42:01;7.75;;;4.60;;
17921;SDS011;9086;50.966;3.144;2023-05-07T13:44:27;7.50;;;5.70;;
17921;SDS011;9086;50.966;3.144;2023-05-07T13:46:53;6.82;;;6.10;;
17921;SDS011;9086;50.966;3.144;2023-05-07T13:49:24;6.03;;;5.43;;
17921;SDS011;9086;50.966;3.144;2023-05-07T13:51:50;5.97;;;4.78;;
17921;SDS011;9086;50.966;3.144;2023-05-07T13:54:16;7.13;;;4.78;;
17921;SDS011;9086;50.966;3.144;2023-05-07T13:56:43;6.60;;;5.40;;
17921;SDS011;9086;50.966;3.144;2023-05-07T13:59:10;8.50;;;4.78;;
17921;SDS011;9086;50.966;3.144;2023-05-07T14:01:37;6.35;;;4.20;;
17921;SDS011;9086;50.966;3.144;2023-05-07T14:04:03;5.35;;;4.22;;
17921;SDS011;9086;50.966;3.144;2023-05-07T14:06:31;5.57;;;4.13;;
17921;SDS011;9086;50.966;3.144;2023-05-07T14:09:04;4.93;;;4.45;;
17921;SDS011;9086;50.966;3.144;2023-05-07T14:11:30;4.90;;;4.38;;
17921;SDS011;9086;50.966;3.144;2023-05-07T14:13:56;5.90;;;4.85;;
17921;SDS011;9086;50.966;3.144;2023-05-07T14:16:23;4.63;;;4.22;;
17921;SDS011;9086;50.966;3.144;2023-05-07T14:18:51;7.53;;;4.97;;
17921;SDS011;9086;50.966;3.144;2023-05-07T14:21:17;6.05;;;4.82;;
17921;SDS011;9086;50.966;3.144;2023-05-07T14:23:43;5.40;;;4.80;;
17921;SDS011;9086;50.966;3.144;2023-05-07T14:26:09;6.72;;;4.78;;
17921;SDS011;9086;50.966;3.144;2023-05-07T14:28:37;6.40;;;4.03;;
17921;SDS011;9086;50.966;3.144;2023-05-07T14:31:04;7.40;;;5.10;;
17921;SDS011;9086;50.966;3.144;2023-05-07T14:33:31;4.97;;;4.43;;
17921;SDS011;9086;50.966;3.144;2023-05-07T14:35:58;6.28;;;4.47;;
17921;SDS011;9086;50.966;3.144;2023-05-07T14:38:24;5.55;;;5.00;;
17921;SDS011;9086;50.966;3.144;2023-05-07T14:40:54;8.68;;;5.72;;
17921;SDS011;9086;50.966;3.144;2023-05-07T14:43:21;8.45;;;5.75;;
17921;SDS011;9086;50.966;3.144;2023-05-07T14:45:51;8.18;;;6.15;;
17921;SDS011;9086;50.966;3.144;2023-05-07T14:48:17;6.25;;;5.40;;
17921;SDS011;9086;50.966;3.144;2023-05-07T14:50:43;7.88;;;4.85;;
17921;SDS011;9086;50.966;3.144;2023-05-07T14:53:09;5.95;;;4.22;;
17921;SDS011;9086;50.966;3.144;2023-05-07T14:55:37;6.10;;;4.55;;
17921;SDS011;9086;50.966;3.144;2023-05-07T14:58:03;4.00;;;3.50;;
17921;SDS011;9086;50.966;3.144;2023-05-07T15:00:30;4.13;;;2.33;;
17921;SDS011;9086;50.966;3.144;2023-05-07T15:03:01;4.53;;;1.88;;
17921;SDS011;9086;50.966;3.144;2023-05-07T15:05:32;2.33;;;1.98;;
17921;SDS011;9086;50.966;3.144;2023-05-07T15:07:58;3.85;;;1.90;;
17921;SDS011;9086;50.966;3.144;2023-05-07T15:10:27;3.25;;;2.00;;
17921;SDS011;9086;50.966;3.144;2023-05-07T15:12:57;4.20;;;2.03;;
17921;SDS011;9086;50.966;3.144;2023-05-07T15:15:23;4.82;;;2.53;;